Time;durP1;ratioP1;P1;durP2;ratioP2;P2;SDS_P1;SDS_P2;PMS_P1;PMS_P2;Temp;Humidity;BMP_temperature;BMP_pressure;BME280_temperature;BME280_humidity;BME280_pressure;Samples;Min_cycle;Max_cycle;Signal;HPM_P1;HPM_P2
2023/07/16 00:01:30;;;;;;;11.00;2.72;;;;;;;16.67;100.00;100786.06;5196959;28;20412;-66
2023/07/16 00:04:01;;;;;;;7.38;3.03;;;;;;;16.74;100.00;100786.28;5211983;28;20500;-66
2023/07/16 00:06:33;;;;;;;8.55;3.20;;;;;;;16.76;100.00;100789.66;5199760;28;20040;-66
2023/07/16 00:09:04;;;;;;;7.72;3.30;;;;;;;16.79;100.00;100785.78;5196438;28;21112;-66
2023/07/16 00:11:35;;;;;;;7.38;2.80;;;;;;;16.77;100.00;100788.63;5200831;28;20037;-66
2023/07/16 00:14:07;;;;;;;8.95;3.33;;;;;;;16.85;100.00;100787.88;5202458;28;20053;-66
2023/07/16 00:16:39;;;;;;;7.43;2.90;;;;;;;16.77;100.00;100791.31;5197984;28;20109;-66
2023/07/16 00:19:11;;;;;;;6.97;2.70;;;;;;;16.78;100.00;100794.84;5201984;28;20683;-66
2023/07/16 00:21:43;;;;;;;9.80;2.85;;;;;;;16.83;100.00;100795.25;5195879;28;20335;-66
2023/07/16 00:24:14;;;;;;;6.88;3.17;;;;;;;16.76;100.00;100789.66;5200649;28;20031;-66
2023/07/16 00:26:45;;;;;;;9.27;3.40;;;;;;;16.76;100.00;100792.34;5199097;28;20065;-66
2023/07/16 00:29:17;;;;;;;9.00;3.45;;;;;;;16.81;100.00;100792.69;5202176;28;20049;-66
2023/07/16 00:31:48;;;;;;;5.90;3.03;;;;;;;16.67;100.00;100791.44;5200189;28;20108;-66
2023/07/16 00:34:19;;;;;;;7.72;3.05;;;;;;;16.88;100.00;100797.50;5201147;28;20123;-66
2023/07/16 00:36:51;;;;;;;11.35;3.08;;;;;;;16.71;100.00;100797.34;5203534;28;20026;-66
2023/07/16 00:39:22;;;;;;;10.13;3.80;;;;;;;16.84;100.00;100803.19;5199488;28;20033;-66
2023/07/16 00:41:54;;;;;;;11.80;4.07;;;;;;;16.74;100.00;100801.56;5196602;28;20425;-66
2023/07/16 00:44:25;;;;;;;7.72;2.90;;;;;;;16.77;100.00;100795.88;5198212;28;20444;-66
2023/07/16 00:46:57;;;;;;;8.90;3.17;;;;;;;16.84;100.00;100799.66;5198021;28;20036;-66
2023/07/16 00:49:29;;;;;;;9.23;3.90;;;;;;;16.66;100.00;100800.53;5200375;28;20038;-66
2023/07/16 00:52:00;;;;;;;5.95;2.78;;;;;;;16.74;100.00;100793.50;5204752;28;20044;-66
2023/07/16 00:54:32;;;;;;;5.38;3.30;;;;;;;16.76;100.00;100794.16;5196885;28;20500;-66
2023/07/16 00:57:04;;;;;;;7.90;3.35;;;;;;;16.71;100.00;100796.53;5196933;28;20041;-66
2023/07/16 00:59:35;;;;;;;7.18;2.95;;;;;;;16.72;100.00;100795.50;5194944;28;20026;-66
2023/07/16 01:02:07;;;;;;;8.05;2.63;;;;;;;16.78;100.00;100787.63;5201004;28;20461;-66
2023/07/16 01:04:38;;;;;;;8.88;3.20;;;;;;;16.61;100.00;100799.31;5201474;28;20033;-66
2023/07/16 01:07:13;;;;;;;7.93;2.88;;;;;;;16.55;100.00;100800.78;5200994;28;20038;-66
2023/07/16 01:09:46;;;;;;;7.70;2.83;;;;;;;16.60;100.00;100792.22;5208700;28;20026;-66
2023/07/16 01:12:20;;;;;;;7.80;3.40;;;;;;;16.71;100.00;100796.53;5200945;28;20034;-66
2023/07/16 01:14:52;;;;;;;9.63;3.17;;;;;;;16.89;100.00;100797.31;5205828;28;20305;-66
2023/07/16 01:17:24;;;;;;;8.70;3.28;;;;;;;16.73;100.00;100795.34;5202460;28;20793;-66
2023/07/16 01:19:55;;;;;;;10.25;3.05;;;;;;;16.66;100.00;100788.91;5211219;28;20037;-66
2023/07/16 01:22:30;;;;;;;7.32;3.08;;;;;;;16.69;100.00;100793.13;5210861;28;20436;-66
2023/07/16 01:25:09;;;;;;;;;;;;;;;17.20;100.00;100786.88;5205977;28;20148;-66
2023/07/16 01:28:11;;;;;;;7.03;3.15;;;;;;;16.84;100.00;100788.88;5199616;28;19964;-66
2023/07/16 01:30:44;;;;;;;8.63;3.28;;;;;;;16.71;100.00;100796.53;5201099;28;20034;-66
2023/07/16 01:33:16;;;;;;;11.63;3.10;;;;;;;16.71;100.00;100797.34;5202142;28;20029;-66
2023/07/16 01:35:50;;;;;;;8.80;3.30;;;;;;;16.69;100.00;100798.53;5208029;28;20049;-66
2023/07/16 01:38:23;;;;;;;9.00;3.33;;;;;;;16.64;100.00;100786.38;5199683;28;20064;-66
2023/07/16 01:40:54;;;;;;;9.05;3.67;;;;;;;16.65;100.00;100790.75;5205165;28;20049;-66
2023/07/16 01:43:26;;;;;;;9.07;3.22;;;;;;;16.57;100.00;100779.09;5208132;28;20037;-66
2023/07/16 01:45:57;;;;;;;9.90;3.28;;;;;;;16.55;100.00;100783.75;5200369;28;20530;-66
2023/07/16 01:48:32;;;;;;;8.32;3.42;;;;;;;16.55;100.00;100787.31;5212759;28;20022;-66
2023/07/16 01:51:03;;;;;;;8.27;3.65;;;;;;;16.60;100.00;100794.91;5206777;28;20038;-66
2023/07/16 01:53:35;;;;;;;8.18;3.80;;;;;;;16.43;100.00;100802.03;5206181;28;20561;-66
2023/07/16 01:56:06;;;;;;;6.85;3.42;;;;;;;16.51;100.00;100790.47;5203645;28;20038;-66
2023/07/16 01:58:38;;;;;;;8.13;3.60;;;;;;;16.52;100.00;100790.31;5208884;28;20033;-66
2023/07/16 02:01:09;;;;;;;10.93;4.00;;;;;;;16.54;100.00;100782.09;5206269;28;20072;-66
2023/07/16 02:03:40;;;;;;;7.75;3.38;;;;;;;16.49;100.00;100779.84;5203078;28;20032;-65
2023/07/16 02:06:13;;;;;;;6.93;3.60;;;;;;;16.49;100.00;100789.78;5207968;28;20076;-66
2023/07/16 02:08:44;;;;;;;9.88;3.90;;;;;;;16.77;100.00;100783.25;5218230;28;20053;-66
2023/07/16 02:11:16;;;;;;;7.93;3.83;;;;;;;16.75;100.00;100784.41;5209866;28;20059;-66
2023/07/16 02:13:48;;;;;;;10.25;4.35;;;;;;;16.77;100.00;100793.19;5203040;28;20092;-65
2023/07/16 02:16:19;;;;;;;7.07;3.83;;;;;;;16.49;100.00;100790.63;5200067;28;20400;-66
2023/07/16 02:18:50;;;;;;;7.30;4.30;;;;;;;16.67;100.00;100790.59;5213572;28;20059;-66
2023/07/16 02:21:22;;;;;;;11.02;3.95;;;;;;;16.61;100.00;100786.69;5213769;28;20018;-66
2023/07/16 02:23:53;;;;;;;8.80;4.00;;;;;;;16.59;100.00;100801.31;5203964;28;20408;-66
2023/07/16 02:26:25;;;;;;;12.85;4.60;;;;;;;16.58;100.00;100794.25;5205912;28;20030;-66
2023/07/16 02:28:57;;;;;;;9.77;3.58;;;;;;;16.60;100.00;100801.16;5209925;28;20117;-66
2023/07/16 02:31:29;;;;;;;10.48;3.85;;;;;;;16.54;100.00;100804.47;5211734;28;20469;-66
2023/07/16 02:34:00;;;;;;;8.02;3.88;;;;;;;16.71;100.00;100810.00;5199126;28;20026;-66
2023/07/16 02:36:31;;;;;;;8.10;3.83;;;;;;;16.49;100.00;100814.03;5218103;28;20057;-66
2023/07/16 02:39:03;;;;;;;7.90;3.97;;;;;;;16.55;100.00;100802.63;5209047;28;20476;-66
2023/07/16 02:41:34;;;;;;;7.30;4.10;;;;;;;16.38;100.00;100809.75;5212654;28;20065;-66
2023/07/16 02:44:06;;;;;;;9.43;3.80;;;;;;;16.63;100.00;100808.09;5209574;28;20034;-66
2023/07/16 02:46:37;;;;;;;13.43;4.65;;;;;;;16.42;100.00;100813.81;5203407;28;20060;-65
2023/07/16 02:49:09;;;;;;;10.13;4.13;;;;;;;16.69;100.00;100807.44;5211972;28;20079;-65
2023/07/16 02:51:40;;;;;;;10.75;4.20;;;;;;;16.66;100.00;100808.63;5204030;28;20044;-66
2023/07/16 02:54:12;;;;;;;9.18;4.03;;;;;;;16.88;100.00;100805.59;5212819;28;20030;-66
2023/07/16 02:56:43;;;;;;;11.07;4.68;;;;;;;16.65;100.00;100816.84;5205589;28;20040;-66
2023/07/16 02:59:14;;;;;;;8.45;4.63;;;;;;;16.64;100.00;100816.03;5212077;28;20105;-66
2023/07/16 03:01:46;;;;;;;8.00;3.60;;;;;;;16.45;100.00;100818.88;5214495;28;20136;-66
2023/07/16 03:04:17;;;;;;;12.18;4.53;;;;;;;16.34;100.00;100819.13;5210255;28;21383;-66
2023/07/16 03:06:48;;;;;;;10.00;4.03;;;;;;;16.32;100.00;100818.44;5206406;28;20033;-66
2023/07/16 03:09:20;;;;;;;9.30;3.88;;;;;;;16.43;100.00;100816.38;5216258;28;20049;-66
2023/07/16 03:11:51;;;;;;;9.55;4.00;;;;;;;16.38;100.00;100826.75;5214361;28;20523;-66
2023/07/16 03:14:23;;;;;;;8.02;3.92;;;;;;;16.34;100.00;100824.50;5213412;28;20044;-65
2023/07/16 03:16:54;;;;;;;9.05;4.07;;;;;;;16.33;100.00;100829.06;5206715;28;20104;-65
2023/07/16 03:19:25;;;;;;;9.02;3.90;;;;;;;16.13;100.00;100841.84;5209156;28;20033;-66
2023/07/16 03:21:57;;;;;;;10.73;3.80;;;;;;;16.21;100.00;100838.38;5217940;28;20061;-65
2023/07/16 03:24:28;;;;;;;11.95;4.32;;;;;;;16.00;100.00;100828.75;5204064;28;20101;-65
2023/07/16 03:26:59;;;;;;;10.93;4.20;;;;;;;15.90;100.00;100829.81;5217769;28;20025;-65
2023/07/16 03:29:35;;;;;;;8.32;3.92;;;;;;;15.85;100.00;100843.75;5211192;28;20013;-66
2023/07/16 03:32:06;;;;;;;8.80;4.15;;;;;;;15.81;100.00;100840.50;5210205;28;20036;-65
2023/07/16 03:34:38;;;;;;;9.38;4.05;;;;;;;15.76;100.00;100836.56;5207262;28;20046;-66
2023/07/16 03:37:09;;;;;;;9.50;4.65;;;;;;;15.74;100.00;100838.56;5208856;28;20026;-65
2023/07/16 03:39:41;;;;;;;7.15;4.47;;;;;;;15.83;100.00;100843.06;5205256;28;20084;-65
2023/07/16 03:42:12;;;;;;;10.48;4.35;;;;;;;15.58;100.00;100842.75;5213989;28;20057;-66
2023/07/16 03:44:44;;;;;;;12.35;4.95;;;;;;;15.51;100.00;100844.31;5209813;28;20038;-65
2023/07/16 03:47:15;;;;;;;9.93;4.82;;;;;;;15.51;100.00;100846.19;5204945;28;20030;-65
2023/07/16 03:49:47;;;;;;;11.70;4.68;;;;;;;15.67;100.00;100847.22;5206550;28;20034;-65
2023/07/16 03:52:18;;;;;;;9.90;4.68;;;;;;;15.63;100.00;100847.69;5213393;28;20034;-65
2023/07/16 03:54:50;;;;;;;8.45;4.13;;;;;;;15.49;100.00;100855.25;5212756;28;20026;-65
2023/07/16 03:57:21;;;;;;;11.93;5.13;;;;;;;15.34;100.00;100861.25;5208068;28;20104;-66
2023/07/16 03:59:53;;;;;;;15.02;5.40;;;;;;;15.42;100.00;100864.06;5201571;28;21619;-65
2023/07/16 04:02:25;;;;;;;12.18;4.50;;;;;;;15.37;100.00;100864.50;5197585;28;20034;-65
2023/07/16 04:04:56;;;;;;;11.65;4.47;;;;;;;15.31;100.00;100865.09;5197961;28;20033;-65
2023/07/16 04:07:31;;;;;;;10.27;4.57;;;;;;;15.23;100.00;100870.38;5203609;28;20046;-65
2023/07/16 04:10:02;;;;;;;11.60;4.68;;;;;;;15.16;100.00;100866.56;5204799;28;20029;-65
2023/07/16 04:12:35;;;;;;;10.18;4.43;;;;;;;15.21;100.00;100869.66;5211819;28;20046;-65
2023/07/16 04:15:11;;;;;;;11.02;4.82;;;;;;;15.20;100.00;100876.03;5205404;28;20108;-65
2023/07/16 04:17:42;;;;;;;12.40;5.07;;;;;;;15.18;100.00;100878.84;5201394;28;20477;-65
2023/07/16 04:20:14;;;;;;;14.07;5.20;;;;;;;15.25;100.00;100885.34;5209230;28;20958;-65
2023/07/16 04:22:45;;;;;;;12.65;5.43;;;;;;;15.22;100.00;100895.53;5207180;28;20045;-65
2023/07/16 04:25:17;;;;;;;13.02;5.65;;;;;;;15.19;100.00;100893.16;5208477;28;20745;-66
2023/07/16 04:27:48;;;;;;;12.13;4.90;;;;;;;15.15;100.00;100899.78;5202947;28;20034;-65
2023/07/16 04:30:19;;;;;;;12.82;5.00;;;;;;;15.04;100.00;100896.28;5203028;28;21359;-65
2023/07/16 04:32:51;;;;;;;15.57;6.50;;;;;;;15.15;100.00;100900.66;5207176;28;20036;-65
2023/07/16 04:35:22;;;;;;;11.82;5.65;;;;;;;15.47;100.00;100902.09;5218030;28;20701;-65
2023/07/16 04:37:54;;;;;;;12.55;5.43;;;;;;;15.13;100.00;100909.84;5209595;28;20038;-65
2023/07/16 04:40:25;;;;;;;13.20;5.35;;;;;;;15.22;100.00;100915.19;5209321;28;20114;-65
2023/07/16 04:42:57;;;;;;;15.25;5.63;;;;;;;15.20;100.00;100916.34;5213858;28;20388;-65
2023/07/16 04:45:28;;;;;;;11.07;5.50;;;;;;;15.03;100.00;100913.44;5222244;28;20411;-65
2023/07/16 04:47:59;;;;;;;14.45;6.32;;;;;;;15.18;100.00;100921.00;5208912;28;20026;-65
2023/07/16 04:50:31;;;;;;;17.38;6.07;;;;;;;15.09;100.00;100930.78;5210260;28;20129;-65
2023/07/16 04:53:02;;;;;;;16.67;6.50;;;;;;;15.06;100.00;100926.56;5222199;28;20033;-65
2023/07/16 04:55:37;;;;;;;12.32;5.95;;;;;;;15.08;100.00;100927.25;5217517;28;20088;-65
2023/07/16 04:58:11;;;;;;;13.77;5.68;;;;;;;15.40;100.00;100927.91;5213593;28;20034;-65
2023/07/16 05:00:43;;;;;;;11.10;5.80;;;;;;;15.34;100.00;100931.16;5217719;28;20648;-65
2023/07/16 05:03:14;;;;;;;13.48;5.57;;;;;;;15.18;100.00;100937.16;5206339;28;20034;-65
2023/07/16 05:05:46;;;;;;;11.77;5.68;;;;;;;15.14;100.00;100928.53;5211850;28;20030;-65
2023/07/16 05:08:17;;;;;;;12.48;5.85;;;;;;;15.27;100.00;100930.91;5211469;28;20052;-65
2023/07/16 05:10:48;;;;;;;12.73;5.43;;;;;;;15.27;100.00;100936.28;5216241;28;20152;-65
2023/07/16 05:13:20;;;;;;;11.80;5.00;;;;;;;15.18;100.00;100929.91;5206317;28;20057;-64
2023/07/16 05:15:51;;;;;;;13.52;6.88;;;;;;;15.32;100.00;100933.97;5210289;28;20455;-65
2023/07/16 05:18:23;;;;;;;12.95;5.88;;;;;;;15.18;100.00;100929.91;5204367;28;20030;-65
2023/07/16 05:20:54;;;;;;;13.40;6.95;;;;;;;15.15;100.00;100937.41;5210440;28;20104;-65
2023/07/16 05:23:27;;;;;;;11.98;6.18;;;;;;;15.20;100.00;100929.78;5215166;28;20049;-65
2023/07/16 05:25:58;;;;;;;12.73;6.35;;;;;;;15.22;100.00;100934.00;5210334;28;20543;-65
2023/07/16 05:28:30;;;;;;;15.63;6.13;;;;;;;15.11;100.00;100944.94;5205984;28;20379;-65
2023/07/16 05:31:02;;;;;;;14.25;6.55;;;;;;;15.18;100.00;100937.16;5201415;28;20397;-65
2023/07/16 05:33:34;;;;;;;12.27;5.70;;;;;;;15.34;100.00;100936.53;5205731;28;20052;-64
2023/07/16 05:36:06;;;;;;;15.55;6.50;;;;;;;15.29;100.00;100940.50;5206032;28;20026;-65
2023/07/16 05:38:37;;;;;;;12.45;6.13;;;;;;;15.29;100.00;100936.97;5201405;28;20052;-65
2023/07/16 05:41:09;;;;;;;14.48;6.18;;;;;;;15.18;100.00;100935.28;5202634;28;20364;-65
2023/07/16 05:43:40;;;;;;;18.67;6.60;;;;;;;15.34;100.00;100937.41;5221594;28;20026;-65
2023/07/16 05:46:11;;;;;;;12.95;6.25;;;;;;;15.32;100.00;100963.56;5206475;28;20473;-65
2023/07/16 05:48:43;;;;;;;13.75;6.30;;;;;;;15.35;100.00;100955.19;5204226;28;20041;-64
2023/07/16 05:51:14;;;;;;;11.82;6.72;;;;;;;15.36;100.00;100958.72;5203450;28;20041;-65
2023/07/16 05:53:46;;;;;;;14.18;6.72;;;;;;;15.50;100.00;100958.28;5205957;28;20029;-65
2023/07/16 05:56:17;;;;;;;14.10;6.60;;;;;;;15.44;100.00;100962.41;5199554;28;20105;-64
2023/07/16 05:58:48;;;;;;;15.68;7.20;;;;;;;15.50;100.00;100963.66;5196594;28;20030;-65
2023/07/16 06:01:20;;;;;;;11.55;6.93;;;;;;;15.41;100.00;100981.50;5197340;28;20124;-65
2023/07/16 06:03:51;;;;;;;15.18;6.60;;;;;;;15.40;100.00;100974.44;5196794;28;20124;-65
2023/07/16 06:06:23;;;;;;;12.57;6.80;;;;;;;15.51;100.00;100977.94;5199846;28;20038;-66
2023/07/16 06:08:54;;;;;;;17.20;7.03;;;;;;;15.58;100.00;100974.53;5211067;28;20050;-65
2023/07/16 06:11:25;;;;;;;14.57;7.13;;;;;;;15.58;100.00;100976.38;5198553;28;20069;-65
2023/07/16 06:13:57;;;;;;;15.00;7.38;;;;;;;15.58;100.00;100971.00;5197364;28;20428;-64
2023/07/16 06:16:28;;;;;;;16.65;7.20;;;;;;;15.68;100.00;100971.78;5198963;28;20022;-65
2023/07/16 06:19:00;;;;;;;13.30;6.72;;;;;;;15.64;100.00;100981.16;5199459;28;20118;-64
2023/07/16 06:21:31;;;;;;;16.98;7.40;;;;;;;15.68;100.00;100982.56;5198465;28;20058;-65
2023/07/16 06:24:02;;;;;;;13.82;7.13;;;;;;;15.72;100.00;100981.25;5197386;28;20114;-65
2023/07/16 06:26:34;;;;;;;14.45;7.10;;;;;;;15.90;100.00;100978.69;5196986;28;20461;-64
2023/07/16 06:29:05;;;;;;;14.65;6.70;;;;;;;15.83;100.00;100981.09;5199401;28;20531;-65
2023/07/16 06:31:36;;;;;;;13.38;6.72;;;;;;;15.89;100.00;100976.97;5205641;28;20665;-65
2023/07/16 06:34:08;;;;;;;14.27;6.63;;;;;;;15.94;100.00;100980.06;5202868;28;20125;-65
2023/07/16 06:36:39;;;;;;;14.93;6.82;;;;;;;15.98;100.00;100977.94;5198678;28;20034;-65
2023/07/16 06:39:11;;;;;;;14.27;7.20;;;;;;;16.02;100.00;100990.09;5203676;28;20044;-65
2023/07/16 06:41:42;;;;;;;13.45;7.32;;;;;;;16.12;100.00;100990.03;5202462;28;20023;-65
2023/07/16 06:44:14;;;;;;;14.38;7.03;;;;;;;16.17;100.00;100985.06;5201807;28;20034;-65
2023/07/16 06:46:45;;;;;;;13.50;6.43;;;;;;;16.32;100.00;100988.06;5197680;28;20026;-65
2023/07/16 06:49:16;;;;;;;16.52;7.07;;;;;;;16.32;100.00;100985.38;5196985;28;20040;-65
2023/07/16 06:51:48;;;;;;;13.73;7.00;;;;;;;16.39;100.00;100998.09;5197670;28;20026;-65
2023/07/16 06:54:19;;;;;;;14.30;7.97;;;;;;;16.45;100.00;101002.00;5194855;28;20512;-65
2023/07/16 06:56:50;;;;;;;15.32;7.50;;;;;;;16.52;100.00;100996.88;5196976;28;20025;-65
2023/07/16 06:59:22;;;;;;;13.70;7.20;;;;;;;16.52;100.00;101002.28;5198871;28;20169;-65
2023/07/16 07:01:53;;;;;;;15.60;7.70;;;;;;;16.68;100.00;101010.50;5195202;28;20395;-64
2023/07/16 07:04:25;;;;;;;12.98;6.68;;;;;;;16.76;100.00;101007.03;5194172;28;20112;-66
2023/07/16 07:06:56;;;;;;;14.38;7.00;;;;;;;16.89;100.00;101004.84;5199120;28;20091;-64
2023/07/16 07:09:27;;;;;;;16.15;7.72;;;;;;;17.03;100.00;101009.69;5196749;28;20047;-65
2023/07/16 07:11:59;;;;;;;13.93;7.40;;;;;;;17.04;100.00;101013.22;5197055;28;20085;-65
2023/07/16 07:14:31;;;;;;;12.90;7.03;;;;;;;17.11;100.00;101022.41;5195928;28;20037;-65
2023/07/16 07:17:03;;;;;;;14.98;7.32;;;;;;;17.11;100.00;101026.94;5192710;28;20555;-65
2023/07/16 07:19:34;;;;;;;16.75;7.47;;;;;;;17.08;100.00;101028.09;5194515;28;20026;-65
2023/07/16 07:22:05;;;;;;;13.02;7.35;;;;;;;17.25;100.00;101027.22;5195509;28;20362;-65
2023/07/16 07:24:37;;;;;;;13.90;7.32;;;;;;;17.36;100.00;101030.69;5192796;28;20124;-65
2023/07/16 07:27:08;;;;;;;16.83;7.55;;;;;;;17.44;100.00;101030.72;5194357;28;20125;-64
2023/07/16 07:29:40;;;;;;;14.20;7.80;;;;;;;17.55;100.00;101043.13;5197335;28;20432;-65
2023/07/16 07:32:11;;;;;;;12.90;6.90;;;;;;;17.59;100.00;101033.72;5194438;28;20120;-64
2023/07/16 07:34:42;;;;;;;16.08;7.47;;;;;;;17.65;100.00;101033.06;5195019;28;20022;-65
2023/07/16 07:37:14;;;;;;;15.63;7.10;;;;;;;17.74;100.00;101036.66;5196016;28;20029;-64
2023/07/16 07:39:47;;;;;;;13.20;7.18;;;;;;;17.87;100.00;101028.16;5191766;28;20033;-65
2023/07/16 07:42:19;;;;;;;14.32;7.38;;;;;;;17.81;100.00;101029.59;5193397;28;20057;-65
2023/07/16 07:44:50;;;;;;;13.80;7.32;;;;;;;17.79;100.00;101040.56;5195519;28;20661;-64
2023/07/16 07:47:22;;;;;;;11.80;6.82;;;;;;;17.85;100.00;101038.25;5198551;28;20383;-64
2023/07/16 07:49:53;;;;;;;12.40;6.97;;;;;;;17.90;100.00;101041.34;5197300;28;20621;-65
2023/07/16 07:52:27;;;;;;;12.85;6.82;;;;;;;17.95;100.00;101050.66;5209904;28;20030;-65
2023/07/16 07:54:59;;;;;;;15.20;7.03;;;;;;;18.09;100.00;101038.41;5196222;28;20021;-65
2023/07/16 07:57:30;;;;;;;15.07;6.45;;;;;;;18.11;100.00;101038.25;5206822;28;20045;-65
2023/07/16 08:00:02;;;;;;;14.10;7.28;;;;;;;18.21;100.00;101038.94;5192686;28;20032;-65
2023/07/16 08:02:34;;;;;;;11.13;7.07;;;;;;;18.22;100.00;101037.94;5198597;28;20064;-65
2023/07/16 08:05:06;;;;;;;11.90;6.13;;;;;;;18.37;100.00;101040.84;5206335;28;20063;-65
2023/07/16 08:07:37;;;;;;;11.57;6.38;;;;;;;18.49;100.00;101042.25;5206864;28;20563;-64
2023/07/16 08:10:09;;;;;;;15.73;7.40;;;;;;;18.49;100.00;101047.66;5206711;28;20061;-66
2023/07/16 08:12:40;;;;;;;13.00;6.35;;;;;;;18.54;100.00;101041.75;5200414;28;20552;-65
2023/07/16 08:15:14;;;;;;;14.65;6.78;;;;;;;18.45;100.00;101034.63;5206463;28;20034;-65
2023/07/16 08:17:46;;;;;;;13.25;6.68;;;;;;;18.47;100.00;101038.88;5205209;28;20034;-65
2023/07/16 08:20:17;;;;;;;15.20;6.03;;;;;;;18.55;100.00;101040.75;5195587;28;20030;-65
2023/07/16 08:22:49;;;;;;;10.30;5.65;;;;;;;18.64;100.00;101044.31;5203309;28;20357;-65
2023/07/16 08:25:20;;;;;;;12.27;6.40;;;;;;;18.67;100.00;101044.81;5201881;28;20050;-65
2023/07/16 08:27:51;;;;;;;10.05;5.72;;;;;;;18.82;100.00;101042.34;5203041;28;20090;-65
2023/07/16 08:30:23;;;;;;;11.82;6.25;;;;;;;18.89;100.00;101050.63;5211477;28;20755;-65
2023/07/16 08:32:54;;;;;;;12.80;6.03;;;;;;;18.95;100.00;101053.53;5205308;28;20026;-65
2023/07/16 08:35:26;;;;;;;12.23;5.60;;;;;;;19.17;100.00;101043.91;5199165;28;20036;-65
2023/07/16 08:37:57;;;;;;;10.65;6.15;;;;;;;19.16;100.00;101035.97;5197957;28;20065;-65
2023/07/16 08:40:28;;;;;;;11.48;5.40;;;;;;;19.26;100.00;101044.75;5199622;28;20939;-65
2023/07/16 08:43:00;;;;;;;11.27;5.35;;;;;;;19.32;100.00;101054.06;5203602;28;20093;-65
2023/07/16 08:45:39;;;;;;;12.95;5.50;;;;;;;19.39;100.00;101055.06;5196602;28;20021;-65
2023/07/16 08:48:11;;;;;;;10.93;5.70;;;;;;;19.39;100.00;101055.91;5196938;28;20992;-65
2023/07/16 08:50:46;;;;;;;13.57;6.05;;;;;;;19.43;100.00;101050.16;5197147;28;20018;-65
2023/07/16 08:53:18;;;;;;;9.55;5.20;;;;;;;19.36;100.00;101064.34;5201247;28;20029;-65
2023/07/16 08:55:50;;;;;;;10.93;4.93;;;;;;;19.48;100.00;101059.44;5203556;28;20481;-66
2023/07/16 08:58:23;;;;;;;10.52;5.63;;;;;;;19.49;100.00;101065.72;5201487;28;20216;-65
2023/07/16 09:00:56;;;;;;;10.50;5.10;;;;;;;19.47;100.00;101068.59;5204546;28;20420;-66
2023/07/16 09:03:27;;;;;;;10.50;5.13;;;;;;;19.63;100.00;101075.84;5197181;28;20156;-65
2023/07/16 09:05:59;;;;;;;10.27;4.97;;;;;;;19.85;100.00;101071.63;5204091;28;20028;-65
2023/07/16 09:08:30;;;;;;;9.55;4.97;;;;;;;20.10;100.00;101069.69;5196339;28;20050;-66
2023/07/16 09:11:02;;;;;;;11.65;5.43;;;;;;;20.26;100.00;101067.94;5193763;28;20042;-65
2023/07/16 09:13:33;;;;;;;11.23;5.10;;;;;;;20.42;100.00;101070.56;5200204;28;20038;-65
2023/07/16 09:16:05;;;;;;;11.80;5.22;;;;;;;20.38;100.00;101074.63;5202406;28;20781;-65
2023/07/16 09:18:36;;;;;;;10.23;5.20;;;;;;;20.27;100.00;101075.88;5201224;28;20034;-65
2023/07/16 09:21:08;;;;;;;9.07;4.78;;;;;;;20.31;100.00;101065.53;5203083;28;20061;-65
2023/07/16 09:23:41;;;;;;;10.05;5.75;;;;;;;20.30;100.00;101071.97;5203903;28;20053;-65
2023/07/16 09:26:12;;;;;;;12.20;5.15;;;;;;;20.38;100.00;101071.94;5203123;28;20425;-66
2023/07/16 09:28:48;;;;;;;10.52;4.95;;;;;;;20.60;100.00;101069.50;5205716;28;20033;-65
2023/07/16 09:31:19;;;;;;;9.27;4.90;;;;;;;20.65;100.00;101076.09;5198044;28;20069;-65
2023/07/16 09:33:51;;;;;;;11.20;5.53;;;;;;;20.68;100.00;101077.59;5198865;28;20022;-65
2023/07/16 09:36:24;;;;;;;8.50;4.95;;;;;;;20.69;100.00;101074.69;5192605;28;20115;-65
2023/07/16 09:38:58;;;;;;;7.65;4.65;;;;;;;20.79;100.00;101079.91;5199888;28;20055;-65
2023/07/16 09:41:30;;;;;;;8.95;4.95;;;;;;;20.85;100.00;101079.16;5204510;28;20026;-65
2023/07/16 09:44:01;;;;;;;10.57;5.43;;;;;;;20.85;100.00;101084.59;5210179;28;20034;-65
2023/07/16 09:46:32;;;;;;;12.65;5.18;;;;;;;20.92;100.00;101088.28;5206496;28;20406;-65
2023/07/16 09:49:04;;;;;;;7.88;4.47;;;;;;;20.95;100.00;101081.66;5217005;28;20038;-66
2023/07/16 09:51:37;;;;;;;8.80;4.93;;;;;;;20.87;100.00;101101.53;5203186;28;20022;-65
2023/07/16 09:54:10;;;;;;;9.15;4.47;;;;;;;20.90;100.00;101092.19;5197209;28;20038;-65
2023/07/16 09:56:45;;;;;;;9.10;4.55;;;;;;;20.85;100.00;101097.31;5204309;28;20696;-65
2023/07/16 09:59:22;;;;;;;12.45;5.10;;;;;;;20.87;100.00;101101.53;5203538;28;20022;-65
2023/07/16 10:01:56;;;;;;;10.95;4.50;;;;;;;20.95;100.00;101097.94;5197600;28;20038;-65
2023/07/16 10:04:40;;;;;;;8.82;4.53;;;;;;;21.07;100.00;101112.75;5207069;28;20060;-65
2023/07/16 10:07:24;;;;;;;7.80;4.45;;;;;;;21.20;100.00;101114.88;5207606;28;20034;-66
2023/07/16 10:09:57;;;;;;;9.10;4.83;;;;;;;21.23;100.00;101105.53;5204615;28;20473;-65
2023/07/16 10:12:28;;;;;;;8.83;5.00;;;;;;;21.35;100.00;101107.63;5212724;28;20631;-65
2023/07/16 10:15:02;;;;;;;9.23;4.50;;;;;;;21.37;100.00;101112.06;5207960;28;20026;-65
2023/07/16 10:17:34;;;;;;;10.07;5.03;;;;;;;21.45;100.00;101121.00;5211549;28;20030;-66
2023/07/16 10:20:07;;;;;;;8.75;4.82;;;;;;;21.51;100.00;101128.41;5211198;28;20674;-65
2023/07/16 10:22:45;;;;;;;6.93;4.22;;;;;;;21.53;100.00;101128.22;5208452;28;20029;-65
2023/07/16 10:25:17;;;;;;;9.73;4.32;;;;;;;21.63;100.00;101130.69;5203567;28;20026;-65
2023/07/16 10:27:50;;;;;;;9.23;4.95;;;;;;;21.58;100.00;101133.97;5207397;28;20034;-65
2023/07/16 10:30:22;;;;;;;9.73;4.95;;;;;;;21.64;100.00;101132.38;5210148;28;20029;-65
2023/07/16 10:32:53;;;;;;;11.73;4.95;;;;;;;21.66;100.00;101128.44;5206673;28;20530;-65
2023/07/16 10:35:25;;;;;;;7.45;4.50;;;;;;;21.78;100.00;101122.56;5205598;28;20097;-65
2023/07/16 10:37:56;;;;;;;8.45;4.97;;;;;;;21.73;100.00;101129.41;5204157;28;20507;-65
2023/07/16 10:40:27;;;;;;;10.13;4.38;;;;;;;21.68;100.00;101128.28;5204390;28;20030;-65
2023/07/16 10:42:59;;;;;;;7.70;4.63;;;;;;;21.72;100.00;101130.41;5209303;28;20040;-65
2023/07/16 10:45:30;;;;;;;10.07;4.85;;;;;;;21.96;100.00;101133.09;5206458;28;20400;-65
2023/07/16 10:48:02;;;;;;;8.02;4.40;;;;;;;21.96;100.00;101133.94;5199123;28;20032;-66
2023/07/16 10:50:34;;;;;;;8.15;4.25;;;;;;;22.01;100.00;101139.66;5205311;28;20028;-65
2023/07/16 10:53:06;;;;;;;7.30;4.50;;;;;;;22.02;100.00;101138.63;5218240;28;20038;-65
2023/07/16 10:55:37;;;;;;;7.28;4.10;;;;;;;22.06;100.00;101141.84;5201718;28;20033;-66
2023/07/16 10:58:10;;;;;;;6.78;3.88;;;;;;;22.07;100.00;101143.50;5204550;28;20030;-65
2023/07/16 11:00:41;;;;;;;8.77;4.00;;;;;;;22.17;100.00;101152.25;5208565;28;20057;-65
2023/07/16 11:03:16;;;;;;;8.82;4.22;;;;;;;22.09;100.00;101155.91;5206465;28;20053;-65
2023/07/16 11:05:48;;;;;;;6.68;3.90;;;;;;;21.97;100.00;101165.50;5210643;28;20034;-65
2023/07/16 11:08:24;;;;;;;8.32;4.32;;;;;;;21.91;100.00;101171.69;5208273;28;20136;-66
2023/07/16 11:10:58;;;;;;;8.88;4.70;;;;;;;21.87;100.00;101170.38;5210394;28;20490;-66
2023/07/16 11:13:34;;;;;;;9.88;5.47;;;;;;;21.72;100.00;101167.63;5206391;28;20420;-66
2023/07/16 11:16:09;;;;;;;10.25;4.55;;;;;;;21.79;100.00;101173.16;5210721;28;20148;-66
2023/07/16 11:18:42;;;;;;;9.63;4.75;;;;;;;21.80;100.00;101175.69;5201311;28;20354;-65
2023/07/16 11:21:13;;;;;;;9.07;4.50;;;;;;;21.80;100.00;101172.13;5206964;28;20467;-66
2023/07/16 11:23:44;;;;;;;7.95;4.82;;;;;;;21.72;100.00;101160.31;5209928;28;20028;-65
2023/07/16 11:26:16;;;;;;;8.07;4.40;;;;;;;21.70;100.00;101169.66;5204699;28;20038;-66
2023/07/16 11:28:50;;;;;;;8.93;4.70;;;;;;;21.80;100.00;101174.84;5207885;28;20798;-66
2023/07/16 11:31:23;;;;;;;9.93;4.88;;;;;;;21.89;100.00;101171.03;5201600;28;20026;-65
2023/07/16 11:34:00;;;;;;;9.30;4.72;;;;;;;22.04;100.00;101173.78;5202401;28;20046;-65